createdAt,value
2023-09-14T00:01:04.249Z,2.88
2023-09-14T00:03:31.626Z,3.42
2023-09-14T00:05:58.918Z,3.20
2023-09-14T00:08:31.130Z,3.33
2023-09-14T00:11:01.269Z,3.20
2023-09-14T00:13:28.442Z,2.95
2023-09-14T00:15:55.677Z,3.10
2023-09-14T00:18:23.102Z,3.22
2023-09-14T00:20:54.013Z,3.03
2023-09-14T00:23:22.194Z,3.20
2023-09-14T00:25:50.419Z,3.10
2023-09-14T00:28:18.486Z,3.25
2023-09-14T00:30:45.715Z,3.13
2023-09-14T00:33:12.907Z,2.92
2023-09-14T00:35:39.995Z,2.88
2023-09-14T00:38:07.110Z,3.20
2023-09-14T00:40:34.542Z,3.33
2023-09-14T00:43:01.779Z,2.97
2023-09-14T00:45:29.128Z,3.13
2023-09-14T00:47:59.127Z,2.72
2023-09-14T00:50:27.964Z,3.08
2023-09-14T00:53:16.693Z,2.80
2023-09-14T00:55:45.655Z,2.78
2023-09-14T00:58:16.670Z,2.95
2023-09-14T01:00:47.765Z,2.90
2023-09-14T01:03:15.773Z,3.03
2023-09-14T01:05:45.281Z,2.80
2023-09-14T01:08:12.616Z,2.90
2023-09-14T01:10:39.818Z,2.95
2023-09-14T01:13:15.072Z,2.72
2023-09-14T01:15:54.368Z,2.83
2023-09-14T01:18:38.078Z,2.50
2023-09-14T01:21:36.886Z,2.70
2023-09-14T01:24:26.255Z,2.65
2023-09-14T01:26:53.712Z,2.90
2023-09-14T01:29:20.874Z,2.88
2023-09-14T01:31:48.766Z,2.88
2023-09-14T01:34:18.093Z,2.70
2023-09-14T01:36:55.094Z,2.70
2023-09-14T01:39:26.022Z,2.80
2023-09-14T01:41:56.402Z,2.80
2023-09-14T01:44:26.526Z,2.83
2023-09-14T01:46:56.128Z,3.08
2023-09-14T01:49:23.773Z,2.70
2023-09-14T01:51:51.134Z,2.70
2023-09-14T01:54:18.553Z,2.95
2023-09-14T01:56:46.463Z,2.88
2023-09-14T01:59:13.549Z,2.85
2023-09-14T02:01:40.809Z,2.72
2023-09-14T02:04:08.132Z,2.75
2023-09-14T02:06:35.252Z,2.72
2023-09-14T02:09:02.718Z,2.60
2023-09-14T02:11:29.811Z,2.88
2023-09-14T02:13:56.860Z,2.67
2023-09-14T02:16:24.080Z,3.20
2023-09-14T02:18:51.293Z,2.78
2023-09-14T02:21:19.445Z,2.60
2023-09-14T02:23:49.029Z,2.38
2023-09-14T02:26:16.057Z,2.50
2023-09-14T02:28:43.236Z,2.47
2023-09-14T02:31:10.884Z,2.83
2023-09-14T02:33:38.845Z,2.50
2023-09-14T02:36:07.461Z,2.45
2023-09-14T02:38:34.736Z,2.50
2023-09-14T02:41:01.907Z,2.40
2023-09-14T02:43:29.244Z,2.72
2023-09-14T02:45:56.391Z,3.08
2023-09-14T02:48:23.588Z,2.75
2023-09-14T02:50:50.685Z,2.63
2023-09-14T02:53:17.738Z,2.38
2023-09-14T02:55:44.838Z,2.40
2023-09-14T02:58:12.472Z,2.40
2023-09-14T03:00:43.175Z,2.30
2023-09-14T03:05:42.866Z,2.10
2023-09-14T03:08:10.123Z,2.17
2023-09-14T03:10:38.703Z,2.42
2023-09-14T03:13:05.837Z,2.03
2023-09-14T03:15:35.917Z,2.15
2023-09-14T03:18:04.038Z,2.33
2023-09-14T03:20:31.204Z,2.13
2023-09-14T03:22:59.606Z,2.25
2023-09-14T03:25:26.658Z,2.30
2023-09-14T03:27:53.691Z,2.30
2023-09-14T03:30:20.779Z,2.17
2023-09-14T03:32:48.753Z,2.38
2023-09-14T03:35:16.616Z,2.35
2023-09-14T03:37:43.786Z,2.50
2023-09-14T03:40:11.739Z,2.42
2023-09-14T03:42:39.740Z,2.58
2023-09-14T03:45:08.904Z,2.50
2023-09-14T03:47:36.088Z,2.47
2023-09-14T03:50:04.751Z,2.92
2023-09-14T03:52:31.818Z,2.78
2023-09-14T03:54:58.989Z,2.50
2023-09-14T03:57:26.416Z,2.63
2023-09-14T03:59:54.290Z,2.88
2023-09-14T04:02:21.649Z,2.50
2023-09-14T04:04:48.705Z,2.47
2023-09-14T04:07:17.970Z,2.40
2023-09-14T04:09:46.038Z,2.47
2023-09-14T04:12:13.347Z,2.35
2023-09-14T04:14:40.562Z,2.60
2023-09-14T04:17:07.826Z,2.72
2023-09-14T04:19:34.935Z,2.78
2023-09-14T04:22:02.040Z,3.10
2023-09-14T04:24:30.483Z,2.90
2023-09-14T04:26:57.865Z,3.35
2023-09-14T04:29:25.313Z,3.25
2023-09-14T04:31:52.483Z,3.10
2023-09-14T04:34:19.900Z,3.38
2023-09-14T04:36:47.077Z,3.80
2023-09-14T04:39:14.171Z,4.07
2023-09-14T04:41:41.671Z,3.45
2023-09-14T04:44:10.307Z,3.30
2023-09-14T04:46:37.574Z,3.45
2023-09-14T04:49:05.131Z,3.65
2023-09-14T04:51:32.251Z,3.45
2023-09-14T04:54:00.362Z,3.30
2023-09-14T04:56:28.566Z,3.80
2023-09-14T04:58:55.651Z,3.35
2023-09-14T05:01:22.874Z,3.60
2023-09-14T05:03:50.968Z,3.30
2023-09-14T05:06:19.140Z,3.80
2023-09-14T05:08:46.803Z,3.80
2023-09-14T05:11:14.261Z,3.83
2023-09-14T05:13:41.567Z,3.38
2023-09-14T05:16:08.939Z,3.50
2023-09-14T05:18:36.970Z,2.92
2023-09-14T05:21:04.268Z,2.92
2023-09-14T05:23:31.380Z,3.00
2023-09-14T05:25:58.518Z,3.15
2023-09-14T05:28:26.482Z,2.72
2023-09-14T05:30:53.728Z,2.67
2023-09-14T05:33:21.344Z,3.42
2023-09-14T05:35:50.311Z,2.83
2023-09-14T05:38:18.175Z,2.67
2023-09-14T05:40:46.613Z,2.95
2023-09-14T05:43:14.018Z,2.60
2023-09-14T05:45:42.771Z,2.80
2023-09-14T05:48:10.041Z,3.20
2023-09-14T05:50:37.747Z,3.42
2023-09-14T05:53:07.296Z,3.47
2023-09-14T05:55:35.347Z,3.40
2023-09-14T05:58:02.760Z,3.75
2023-09-14T06:00:30.712Z,3.72
2023-09-14T06:02:59.336Z,3.85
2023-09-14T06:05:26.930Z,3.40
2023-09-14T06:07:55.387Z,3.67
2023-09-14T06:10:25.242Z,3.38
2023-09-14T06:12:52.597Z,3.80
2023-09-14T06:15:20.385Z,3.70
2023-09-14T06:17:49.010Z,3.72
2023-09-14T06:20:16.886Z,3.35
2023-09-14T06:22:44.083Z,3.60
2023-09-14T06:25:11.632Z,3.50
2023-09-14T06:27:38.746Z,3.50
2023-09-14T06:30:07.670Z,3.50
2023-09-14T06:32:34.687Z,3.10
2023-09-14T06:35:02.510Z,3.53
2023-09-14T06:37:29.716Z,3.42
2023-09-14T06:39:57.691Z,3.33
2023-09-14T06:42:24.848Z,3.05
2023-09-14T06:44:52.625Z,3.30
2023-09-14T06:47:19.709Z,3.25
2023-09-14T06:49:48.345Z,3.10
2023-09-14T06:52:15.511Z,3.22
2023-09-14T06:54:43.481Z,3.40
2023-09-14T06:57:10.536Z,3.10
2023-09-14T06:59:37.976Z,3.30
2023-09-14T07:02:06.497Z,3.10
2023-09-14T07:04:35.774Z,3.42
2023-09-14T07:07:02.995Z,3.67
2023-09-14T07:09:30.465Z,2.88
2023-09-14T07:11:57.609Z,3.40
2023-09-14T07:14:24.706Z,2.88
2023-09-14T07:16:51.905Z,2.97
2023-09-14T07:19:19.230Z,3.65
2023-09-14T07:21:46.460Z,2.88
2023-09-14T07:24:13.577Z,3.17
2023-09-14T07:26:40.838Z,2.30
2023-09-14T07:29:09.166Z,2.63
2023-09-14T07:31:37.328Z,2.50
2023-09-14T07:34:04.716Z,2.55
2023-09-14T07:36:31.897Z,3.47
2023-09-14T07:39:01.013Z,2.70
2023-09-14T07:41:28.086Z,2.72
2023-09-14T07:43:55.965Z,3.13
2023-09-14T07:46:23.094Z,2.47
2023-09-14T07:48:50.598Z,2.60
2023-09-14T07:51:17.862Z,2.50
2023-09-14T07:53:45.858Z,2.72
2023-09-14T07:56:13.155Z,2.78
2023-09-14T07:58:40.302Z,2.53
2023-09-14T08:01:07.370Z,2.20
2023-09-14T08:03:34.455Z,2.35
2023-09-14T08:06:01.717Z,2.25
2023-09-14T08:08:28.827Z,2.60
2023-09-14T08:10:56.940Z,2.30
2023-09-14T08:13:24.546Z,2.63
2023-09-14T08:15:51.987Z,2.05
2023-09-14T08:18:22.831Z,2.10
2023-09-14T08:20:50.092Z,2.50
2023-09-14T08:23:19.305Z,2.47
2023-09-14T08:25:49.694Z,2.25
2023-09-14T08:28:20.574Z,2.30
2023-09-14T08:30:50.222Z,2.28
2023-09-14T08:33:20.559Z,2.10
2023-09-14T08:35:49.498Z,2.13
2023-09-14T08:38:20.420Z,2.08
2023-09-14T08:40:54.817Z,2.00
2023-09-14T08:43:22.374Z,2.03
2023-09-14T08:45:52.039Z,1.80
2023-09-14T08:48:23.608Z,1.65
2023-09-14T08:50:53.676Z,1.92
2023-09-14T08:53:23.677Z,1.60
2023-09-14T08:55:52.163Z,1.50
2023-09-14T08:58:20.917Z,1.77
2023-09-14T09:00:49.448Z,2.40
2023-09-14T09:03:17.080Z,1.70
2023-09-14T09:05:44.514Z,2.10
2023-09-14T09:08:12.322Z,2.13
2023-09-14T09:10:41.755Z,2.03
2023-09-14T09:13:08.921Z,1.92
2023-09-14T09:15:38.256Z,1.90
2023-09-14T09:18:08.926Z,1.80
2023-09-14T09:20:39.252Z,2.08
2023-09-14T09:23:07.338Z,1.90
2023-09-14T09:25:55.147Z,1.90
2023-09-14T09:28:33.265Z,1.60
2023-09-14T09:31:00.930Z,1.85
2023-09-14T09:33:37.832Z,1.95
2023-09-14T09:36:16.806Z,2.00
2023-09-14T09:38:46.838Z,2.08
2023-09-14T09:41:17.022Z,2.15
2023-09-14T09:43:45.611Z,1.90
2023-09-14T09:46:18.023Z,1.80
2023-09-14T09:48:46.454Z,2.03
2023-09-14T09:51:14.105Z,1.70
2023-09-14T09:54:08.199Z,2.05
2023-09-14T09:56:39.749Z,2.13
2023-09-14T09:59:11.330Z,2.10
2023-09-14T10:01:40.095Z,2.08
2023-09-14T10:04:13.056Z,1.55
2023-09-14T10:06:42.177Z,1.50
2023-09-14T10:09:12.384Z,2.03
2023-09-14T10:11:41.012Z,2.10
2023-09-14T10:14:14.768Z,1.98
2023-09-14T10:16:44.419Z,1.98
2023-09-14T10:19:13.032Z,1.90
2023-09-14T10:21:44.169Z,2.00
2023-09-14T10:24:15.945Z,2.08
2023-09-14T10:26:46.976Z,2.67
2023-09-14T10:29:14.721Z,2.58
2023-09-14T10:31:47.750Z,2.10
2023-09-14T10:34:17.398Z,2.00
2023-09-14T10:36:46.999Z,2.20
2023-09-14T10:39:17.904Z,1.80
2023-09-14T10:41:45.555Z,2.78
2023-09-14T10:44:12.919Z,2.08
2023-09-14T10:46:43.652Z,2.00
2023-09-14T10:49:11.266Z,2.35
2023-09-14T10:51:38.381Z,1.70
2023-09-14T10:54:06.042Z,1.77
2023-09-14T10:56:34.065Z,1.90
2023-09-14T10:59:10.954Z,1.92
2023-09-14T11:04:21.110Z,1.80
2023-09-14T11:06:57.850Z,2.33
2023-09-14T11:09:26.393Z,1.92
2023-09-14T11:11:57.460Z,1.83
2023-09-14T11:14:28.927Z,1.83
2023-09-14T11:16:59.062Z,2.10
2023-09-14T11:19:51.415Z,1.98
2023-09-14T11:22:27.980Z,2.03
2023-09-14T11:24:57.291Z,2.10
2023-09-14T11:27:29.662Z,2.22
2023-09-14T11:30:00.503Z,1.77
2023-09-14T11:32:30.493Z,2.00
2023-09-14T11:35:04.016Z,2.22
2023-09-14T11:37:35.071Z,2.17
2023-09-14T11:40:20.110Z,1.88
2023-09-14T11:43:39.443Z,2.40
2023-09-14T11:46:17.636Z,2.00
2023-09-14T11:51:25.724Z,2.10
2023-09-14T11:54:03.624Z,2.40
2023-09-14T11:56:36.644Z,2.30
2023-09-14T11:59:05.983Z,2.10
2023-09-14T12:01:35.952Z,2.03
2023-09-14T12:04:07.022Z,2.05
2023-09-14T12:06:34.412Z,2.35
2023-09-14T12:09:01.585Z,2.03
2023-09-14T12:11:43.947Z,2.05
2023-09-14T12:14:11.418Z,1.95
2023-09-14T12:16:40.275Z,2.20
2023-09-14T12:19:13.420Z,1.90
2023-09-14T12:21:41.396Z,2.13
2023-09-14T12:24:09.484Z,2.47
2023-09-14T12:26:36.783Z,2.10
2023-09-14T12:29:04.292Z,2.20
2023-09-14T12:31:33.038Z,2.22
2023-09-14T12:34:00.577Z,2.20
2023-09-14T12:36:28.193Z,2.33
2023-09-14T12:38:55.519Z,2.05
2023-09-14T12:41:23.699Z,2.55
2023-09-14T12:43:51.380Z,2.28
2023-09-14T12:46:19.516Z,2.28
2023-09-14T12:48:47.394Z,2.08
2023-09-14T12:51:18.275Z,2.08
2023-09-14T12:53:45.996Z,2.03
2023-09-14T12:56:14.220Z,2.25
2023-09-14T12:58:45.385Z,2.17
2023-09-14T13:01:12.823Z,2.58
2023-09-14T13:03:40.713Z,2.33
2023-09-14T13:06:08.248Z,2.30
2023-09-14T13:08:48.556Z,2.40
2023-09-14T13:11:33.105Z,2.50
2023-09-14T13:14:00.818Z,2.50
2023-09-14T13:16:31.041Z,2.30
2023-09-14T13:19:02.719Z,2.80
2023-09-14T13:21:29.944Z,2.22
2023-09-14T13:23:58.382Z,2.40
2023-09-14T13:26:25.574Z,3.03
2023-09-14T13:28:53.338Z,2.58
2023-09-14T13:31:20.684Z,2.65
2023-09-14T13:33:48.363Z,2.45
2023-09-14T13:36:15.597Z,2.63
2023-09-14T13:38:42.832Z,2.45
2023-09-14T13:41:10.431Z,2.60
2023-09-14T13:43:37.526Z,2.38
2023-09-14T13:46:04.862Z,2.40
2023-09-14T13:48:32.206Z,2.40
2023-09-14T13:51:00.909Z,2.78
2023-09-14T13:53:29.012Z,2.50
2023-09-14T13:55:56.401Z,2.38
2023-09-14T13:58:23.708Z,2.35
2023-09-14T14:00:50.841Z,2.53
2023-09-14T14:03:19.183Z,2.30
2023-09-14T14:05:46.294Z,2.58
2023-09-14T14:08:15.034Z,2.58
2023-09-14T14:10:42.146Z,2.60
2023-09-14T14:13:09.281Z,2.60
2023-09-14T14:15:37.265Z,2.42
2023-09-14T14:18:04.593Z,2.92
2023-09-14T14:20:31.776Z,2.78
2023-09-14T14:22:58.806Z,2.40
2023-09-14T14:25:25.959Z,2.42
2023-09-14T14:27:53.538Z,2.25
2023-09-14T14:30:20.831Z,2.70
2023-09-14T14:32:47.936Z,2.45
2023-09-14T14:35:16.004Z,2.30
2023-09-14T14:37:43.232Z,2.30
2023-09-14T14:40:29.968Z,2.22
2023-09-14T14:43:01.615Z,2.50
2023-09-14T14:45:28.869Z,2.55
2023-09-14T14:47:56.055Z,2.60
2023-09-14T14:50:23.108Z,2.40
2023-09-14T14:52:50.354Z,2.72
2023-09-14T14:55:18.155Z,2.30
2023-09-14T14:57:45.353Z,2.72
2023-09-14T15:00:13.036Z,2.80
2023-09-14T15:02:40.215Z,2.60
2023-09-14T15:05:09.896Z,2.65
2023-09-14T15:07:37.093Z,2.72
2023-09-14T15:10:04.649Z,2.40
2023-09-14T15:12:32.101Z,2.55
2023-09-14T15:14:59.309Z,2.70
2023-09-14T15:17:26.592Z,2.30
2023-09-14T15:19:53.727Z,2.40
2023-09-14T15:22:20.909Z,2.60
2023-09-14T15:24:48.133Z,2.70
2023-09-14T15:27:15.233Z,2.88
2023-09-14T15:29:42.354Z,2.70
2023-09-14T15:32:09.474Z,2.70
2023-09-14T15:34:36.638Z,3.10
2023-09-14T15:37:03.971Z,2.90
2023-09-14T15:39:32.327Z,2.67
2023-09-14T15:42:00.007Z,3.50
2023-09-14T15:44:28.160Z,2.72
2023-09-14T15:46:56.168Z,3.03
2023-09-14T15:49:25.881Z,2.50
2023-09-14T15:51:53.788Z,2.70
2023-09-14T15:54:22.033Z,2.88
2023-09-14T15:56:49.415Z,2.60
2023-09-14T15:59:16.568Z,2.80
2023-09-14T16:01:46.067Z,2.70
2023-09-14T16:04:14.754Z,2.75
2023-09-14T16:06:50.297Z,2.80
2023-09-14T16:09:18.205Z,2.67
2023-09-14T16:11:47.019Z,2.60
2023-09-14T16:14:15.824Z,2.58
2023-09-14T16:16:47.830Z,3.03
2023-09-14T16:19:17.101Z,2.70
2023-09-14T16:21:44.955Z,2.35
2023-09-14T16:24:12.469Z,2.60
2023-09-14T16:26:39.667Z,3.17
2023-09-14T16:29:07.010Z,2.72
2023-09-14T16:31:34.166Z,2.63
2023-09-14T16:34:01.498Z,2.58
2023-09-14T16:36:28.792Z,2.78
2023-09-14T16:38:59.987Z,2.70
2023-09-14T16:41:27.169Z,2.33
2023-09-14T16:43:54.381Z,2.50
2023-09-14T16:46:21.660Z,2.33
2023-09-14T16:48:50.354Z,2.75
2023-09-14T16:51:17.520Z,2.88
2023-09-14T16:53:44.585Z,2.47
2023-09-14T16:56:11.616Z,2.58
2023-09-14T16:58:38.699Z,3.08
2023-09-14T17:01:08.627Z,2.45
2023-09-14T17:03:37.208Z,2.47
2023-09-14T17:06:06.334Z,2.70
2023-09-14T17:08:33.470Z,2.50
2023-09-14T17:11:00.631Z,2.80
2023-09-14T17:13:28.055Z,2.70
2023-09-14T17:15:55.255Z,2.88
2023-09-14T17:18:22.541Z,2.63
2023-09-14T17:20:49.673Z,2.97
2023-09-14T17:23:16.788Z,2.80
2023-09-14T17:25:44.049Z,2.80
2023-09-14T17:28:12.546Z,2.30
2023-09-14T17:30:40.388Z,2.60
2023-09-14T17:33:07.566Z,3.03
2023-09-14T17:35:35.674Z,2.25
2023-09-14T17:38:03.562Z,2.80
2023-09-14T17:40:32.703Z,2.65
2023-09-14T17:42:59.809Z,2.60
2023-09-14T17:45:28.820Z,2.25
2023-09-14T17:47:56.030Z,2.85
2023-09-14T17:50:26.898Z,2.70
2023-09-14T17:52:54.109Z,2.65
2023-09-14T17:55:24.140Z,2.50
2023-09-14T17:57:51.340Z,2.80
2023-09-14T18:00:18.590Z,2.67
2023-09-14T18:02:49.009Z,2.60
2023-09-14T18:05:17.222Z,2.83
2023-09-14T18:07:45.048Z,2.80
2023-09-14T18:10:15.323Z,2.75
2023-09-14T18:12:42.583Z,2.97
2023-09-14T18:15:11.378Z,3.10
2023-09-14T18:17:40.175Z,2.60
2023-09-14T18:20:11.383Z,3.05
2023-09-14T18:22:41.990Z,2.80
2023-09-14T18:25:10.754Z,2.78
2023-09-14T18:27:38.764Z,2.53
2023-09-14T18:30:07.485Z,2.65
2023-09-14T18:32:34.813Z,2.85
2023-09-14T18:35:01.995Z,2.95
2023-09-14T18:37:29.341Z,2.70
2023-09-14T18:39:57.934Z,3.03
2023-09-14T18:42:25.183Z,2.80
2023-09-14T18:44:53.321Z,2.60
2023-09-14T18:47:21.416Z,2.90
2023-09-14T18:49:48.713Z,2.90
2023-09-14T18:52:16.792Z,2.60
2023-09-14T18:54:44.602Z,3.00
2023-09-14T18:57:11.739Z,2.53
2023-09-14T18:59:39.210Z,2.78
2023-09-14T19:02:09.032Z,3.08
2023-09-14T19:04:36.158Z,2.85
2023-09-14T19:07:04.011Z,3.15
2023-09-14T19:09:32.075Z,3.08
2023-09-14T19:11:59.445Z,2.95
2023-09-14T19:14:26.602Z,2.95
2023-09-14T19:16:54.049Z,3.05
2023-09-14T19:19:21.304Z,2.90
2023-09-14T19:21:48.479Z,2.67
2023-09-14T19:24:15.652Z,2.67
2023-09-14T19:26:42.895Z,3.03
2023-09-14T19:29:10.164Z,3.03
2023-09-14T19:31:37.342Z,2.97
2023-09-14T19:34:05.077Z,2.70
2023-09-14T19:36:32.970Z,2.67
2023-09-14T19:39:00.048Z,3.35
2023-09-14T19:41:27.164Z,3.10
2023-09-14T19:43:54.224Z,2.95
2023-09-14T19:46:21.481Z,3.13
2023-09-14T19:48:49.025Z,2.88
2023-09-14T19:51:18.561Z,2.90
2023-09-14T19:53:46.144Z,2.70
2023-09-14T19:56:13.218Z,3.08
2023-09-14T19:58:40.449Z,2.67
2023-09-14T20:01:07.958Z,2.63
2023-09-14T20:03:35.485Z,2.88
2023-09-14T20:06:05.230Z,3.15
2023-09-14T20:08:32.543Z,3.00
2023-09-14T20:11:01.076Z,3.05
2023-09-14T20:13:28.394Z,2.90
2023-09-14T20:15:55.685Z,2.90
2023-09-14T20:18:22.946Z,3.05
2023-09-14T20:20:49.982Z,2.97
2023-09-14T20:23:17.179Z,2.58
2023-09-14T20:25:44.873Z,2.75
2023-09-14T20:28:15.218Z,2.88
2023-09-14T20:30:44.408Z,3.10
2023-09-14T20:33:11.609Z,2.95
2023-09-14T20:35:38.820Z,2.80
2023-09-14T20:38:06.063Z,3.00
2023-09-14T20:40:33.166Z,2.97
2023-09-14T20:43:00.512Z,2.70
2023-09-14T20:45:27.769Z,2.72
2023-09-14T20:47:55.165Z,2.70
2023-09-14T20:50:23.232Z,3.00
2023-09-14T20:52:53.298Z,3.28
2023-09-14T20:55:20.879Z,3.00
2023-09-14T20:57:57.856Z,2.70
2023-09-14T21:00:25.490Z,3.38
2023-09-14T21:02:52.759Z,3.40
2023-09-14T21:05:20.111Z,3.30
2023-09-14T21:07:47.234Z,3.20
2023-09-14T21:10:14.353Z,2.95
2023-09-14T21:12:41.541Z,2.95
2023-09-14T21:15:09.139Z,2.67
2023-09-14T21:17:36.163Z,2.85
2023-09-14T21:20:03.436Z,3.40
2023-09-14T21:22:30.523Z,3.40
2023-09-14T21:24:59.542Z,3.33
2023-09-14T21:27:27.835Z,3.42
2023-09-14T21:29:55.264Z,3.25
2023-09-14T21:32:22.528Z,3.20
2023-09-14T21:34:49.812Z,3.17
2023-09-14T21:37:18.457Z,3.30
2023-09-14T21:39:45.850Z,3.08
2023-09-14T21:42:13.729Z,3.47
2023-09-14T21:44:40.839Z,3.15
2023-09-14T21:47:07.921Z,2.88
2023-09-14T21:49:38.229Z,3.38
2023-09-14T21:52:07.645Z,2.83
2023-09-14T21:54:36.855Z,3.17
2023-09-14T21:57:07.085Z,3.28
2023-09-14T21:59:36.686Z,3.25
2023-09-14T22:02:06.424Z,3.38
2023-09-14T22:04:37.750Z,3.10
2023-09-14T22:07:05.108Z,3.30
2023-09-14T22:09:34.842Z,3.38
2023-09-14T22:12:04.417Z,3.35
2023-09-14T22:14:31.771Z,3.17
2023-09-14T22:17:01.353Z,3.45
2023-09-14T22:19:30.241Z,3.10
2023-09-14T22:21:58.358Z,3.38
2023-09-14T22:24:26.336Z,3.00
2023-09-14T22:26:54.002Z,3.13
2023-09-14T22:29:21.464Z,3.28
2023-09-14T22:31:49.078Z,3.38
2023-09-14T22:34:16.335Z,3.20
2023-09-14T22:36:43.794Z,2.83
2023-09-14T22:39:11.328Z,3.38
2023-09-14T22:41:40.286Z,3.15
2023-09-14T22:44:09.964Z,3.40
2023-09-14T22:46:37.152Z,3.28
2023-09-14T22:49:05.264Z,3.20
2023-09-14T22:51:32.508Z,3.33
2023-09-14T22:54:01.547Z,3.72
2023-09-14T22:56:29.177Z,3.65
2023-09-14T22:58:56.248Z,3.85
2023-09-14T23:01:27.003Z,3.65
2023-09-14T23:03:55.380Z,3.55
2023-09-14T23:06:22.834Z,3.65
2023-09-14T23:08:50.937Z,3.40
2023-09-14T23:11:25.225Z,3.78
2023-09-14T23:13:53.172Z,3.05
2023-09-14T23:16:28.365Z,3.17
2023-09-14T23:18:56.569Z,3.45
2023-09-14T23:21:23.721Z,3.20
2023-09-14T23:23:51.081Z,3.20
2023-09-14T23:26:18.173Z,2.88
2023-09-14T23:28:45.678Z,2.97
2023-09-14T23:31:13.249Z,3.40
2023-09-14T23:33:41.796Z,3.00
2023-09-14T23:36:12.630Z,3.30
2023-09-14T23:38:43.457Z,3.38
2023-09-14T23:41:12.434Z,2.92
2023-09-14T23:43:43.098Z,3.00
2023-09-14T23:46:12.743Z,3.00
2023-09-14T23:48:42.290Z,3.10
2023-09-14T23:51:09.910Z,3.15
2023-09-14T23:53:39.352Z,3.10
2023-09-14T23:56:07.856Z,3.22
2023-09-14T23:58:35.011Z,2.95
